createdAt,value
2022-08-14T00:00:37.388Z,23.23
2022-08-14T00:03:29.532Z,23.22
2022-08-14T00:06:25.886Z,23.25
2022-08-14T00:09:16.099Z,23.26
2022-08-14T00:12:05.598Z,23.28
2022-08-14T00:15:21.852Z,23.27
2022-08-14T00:18:09.964Z,23.27
2022-08-14T00:21:01.009Z,23.26
2022-08-14T00:23:53.832Z,23.21
2022-08-14T00:26:41.299Z,23.25
2022-08-14T00:29:33.025Z,23.24
2022-08-14T00:32:52.498Z,23.21
2022-08-14T00:36:35.189Z,23.22
2022-08-14T00:38:40.668Z,23.21
2022-08-14T00:41:33.455Z,23.19
2022-08-14T00:44:21.325Z,23.16
2022-08-14T00:47:25.623Z,23.15
2022-08-14T00:50:18.221Z,23.15
2022-08-14T00:53:05.269Z,23.15
2022-08-14T00:55:57.712Z,23.11
2022-08-14T00:58:45.500Z,23.11
2022-08-14T01:01:39.956Z,23.04
2022-08-14T01:04:38.081Z,23.07
2022-08-14T01:07:47.243Z,23.00
2022-08-14T01:10:52.038Z,22.95
2022-08-14T01:13:42.646Z,22.96
2022-08-14T01:16:31.503Z,22.96
2022-08-14T01:19:37.323Z,22.93
2022-08-14T01:22:26.614Z,22.96
2022-08-14T01:25:12.851Z,22.97
2022-08-14T01:27:58.814Z,22.99
2022-08-14T01:30:45.366Z,23.01
2022-08-14T01:34:00.166Z,23.03
2022-08-14T01:36:38.928Z,23.06
2022-08-14T01:39:25.757Z,23.05
2022-08-14T01:42:11.931Z,23.01
2022-08-14T01:45:25.506Z,23.02
2022-08-14T01:48:16.180Z,22.99
2022-08-14T01:51:18.791Z,23.00
2022-08-14T01:54:14.558Z,22.99
2022-08-14T01:57:00.772Z,22.99
2022-08-14T01:59:48.254Z,22.97
2022-08-14T02:02:36.946Z,22.89
2022-08-14T02:05:29.436Z,22.92
2022-08-14T02:08:22.475Z,22.89
2022-08-14T02:11:23.965Z,22.85
2022-08-14T02:14:14.259Z,22.90
2022-08-14T02:17:01.325Z,22.88
2022-08-14T02:19:48.144Z,22.87
2022-08-14T02:22:34.708Z,22.85
2022-08-14T02:25:31.175Z,22.84
2022-08-14T02:28:25.798Z,22.82
2022-08-14T02:31:24.474Z,22.82
2022-08-14T02:34:32.135Z,22.80
2022-08-14T02:37:22.346Z,22.73
2022-08-14T02:40:09.383Z,22.73
2022-08-14T02:42:57.504Z,22.64
2022-08-14T02:45:45.359Z,22.67
2022-08-14T02:49:04.728Z,22.69
2022-08-14T02:51:50.723Z,22.67
2022-08-14T02:54:40.723Z,22.69
2022-08-14T02:57:40.489Z,22.65
2022-08-14T03:00:27.310Z,22.66
2022-08-14T03:03:13.222Z,22.61
2022-08-14T03:06:00.374Z,22.67
2022-08-14T03:08:47.371Z,22.72
2022-08-14T03:11:34.679Z,22.70
2022-08-14T03:14:23.306Z,22.73
2022-08-14T03:17:10.409Z,22.74
2022-08-14T03:19:56.398Z,22.78
2022-08-14T03:22:45.003Z,22.79
2022-08-14T03:25:38.105Z,22.79
2022-08-14T03:28:33.535Z,22.80
2022-08-14T03:31:26.038Z,22.75
2022-08-14T03:34:24.613Z,22.76
2022-08-14T03:39:09.886Z,22.68
2022-08-14T03:40:40.713Z,22.56
2022-08-14T03:43:28.327Z,22.58
2022-08-14T03:46:38.817Z,22.56
2022-08-14T03:49:29.299Z,22.47
2022-08-14T03:52:27.960Z,22.44
2022-08-14T03:55:22.143Z,22.43
2022-08-14T03:58:09.470Z,22.44
2022-08-14T04:01:01.637Z,22.43
2022-08-14T04:03:48.664Z,22.43
2022-08-14T04:06:47.617Z,22.43
2022-08-14T04:09:34.252Z,22.40
2022-08-14T04:12:26.581Z,22.41
2022-08-14T04:15:15.168Z,22.38
2022-08-14T04:18:09.285Z,22.36
2022-08-14T04:21:01.292Z,22.36
2022-08-14T04:23:57.085Z,22.36
2022-08-14T04:26:45.002Z,22.35
2022-08-14T04:29:33.371Z,22.37
2022-08-14T04:33:01.074Z,22.37
2022-08-14T04:35:55.312Z,22.36
2022-08-14T04:39:00.296Z,22.30
2022-08-14T04:42:11.824Z,22.24
2022-08-14T04:45:00.648Z,22.26
2022-08-14T04:48:05.566Z,22.21
2022-08-14T04:50:54.184Z,22.22
2022-08-14T04:53:43.716Z,22.24
2022-08-14T04:56:31.228Z,22.24
2022-08-14T04:59:19.796Z,22.25
2022-08-14T05:02:08.273Z,22.29
2022-08-14T05:04:56.919Z,22.32
2022-08-14T05:07:54.129Z,22.28
2022-08-14T05:10:56.800Z,22.33
2022-08-14T05:16:54.021Z,22.34
2022-08-14T05:19:44.655Z,22.38
2022-08-14T05:22:55.608Z,22.39
2022-08-14T05:25:43.107Z,22.41
2022-08-14T05:28:34.188Z,22.40
2022-08-14T05:31:20.355Z,22.43
2022-08-14T05:34:09.472Z,22.45
2022-08-14T05:37:01.821Z,22.46
2022-08-14T05:39:49.115Z,22.40
2022-08-14T05:42:35.262Z,22.39
2022-08-14T05:45:21.242Z,22.43
2022-08-14T05:48:09.522Z,22.43
2022-08-14T05:50:55.991Z,22.44
2022-08-14T05:53:42.268Z,22.42
2022-08-14T05:56:29.067Z,22.45
2022-08-14T05:59:20.784Z,22.46
2022-08-14T06:02:26.917Z,22.45
2022-08-14T06:05:15.272Z,22.47
2022-08-14T06:08:01.903Z,22.48
2022-08-14T06:11:03.103Z,22.50
2022-08-14T06:13:49.387Z,22.52
2022-08-14T06:16:38.078Z,22.54
2022-08-14T06:19:26.517Z,22.56
2022-08-14T06:22:13.095Z,22.58
2022-08-14T06:24:58.840Z,22.56
2022-08-14T06:27:47.740Z,22.59
2022-08-14T06:30:46.271Z,22.63
2022-08-14T06:35:04.236Z,22.55
2022-08-14T06:36:45.554Z,22.63
2022-08-14T06:39:37.425Z,22.64
2022-08-14T06:42:32.196Z,22.65
2022-08-14T06:45:19.334Z,22.64
2022-08-14T06:48:06.218Z,22.69
2022-08-14T06:50:58.544Z,22.67
2022-08-14T06:53:44.378Z,22.67
2022-08-14T06:56:32.058Z,22.71
2022-08-14T06:59:20.034Z,22.73
2022-08-14T07:02:24.836Z,22.75
2022-08-14T07:05:33.232Z,22.80
2022-08-14T07:08:31.212Z,22.85
2022-08-14T07:11:18.117Z,22.89
2022-08-14T07:14:05.699Z,22.92
2022-08-14T07:16:55.387Z,22.97
2022-08-14T07:19:41.628Z,22.98
2022-08-14T07:22:32.602Z,23.05
2022-08-14T07:25:19.673Z,23.12
2022-08-14T07:28:20.218Z,23.17
2022-08-14T07:31:09.913Z,23.18
2022-08-14T07:33:55.776Z,23.23
2022-08-14T07:36:53.732Z,23.27
2022-08-14T07:39:51.503Z,23.31
2022-08-14T07:42:44.079Z,23.31
2022-08-14T07:45:32.345Z,23.31
2022-08-14T07:48:25.115Z,23.31
2022-08-14T07:51:16.834Z,23.36
2022-08-14T07:54:09.788Z,23.37
2022-08-14T07:57:00.056Z,23.37
2022-08-14T07:59:49.449Z,23.37
2022-08-14T08:02:36.007Z,23.39
2022-08-14T08:05:26.863Z,23.38
2022-08-14T08:08:26.811Z,23.38
2022-08-14T08:11:14.828Z,23.40
2022-08-14T08:14:06.285Z,23.42
2022-08-14T08:16:57.536Z,23.44
2022-08-14T08:19:47.492Z,23.43
2022-08-14T08:22:37.985Z,23.46
2022-08-14T08:25:24.938Z,23.45
2022-08-14T08:28:19.844Z,23.41
2022-08-14T08:31:17.417Z,23.44
2022-08-14T08:34:06.683Z,23.38
2022-08-14T08:37:06.602Z,23.46
2022-08-14T08:40:02.614Z,23.46
2022-08-14T08:42:53.248Z,23.54
2022-08-14T08:45:40.246Z,23.55
2022-08-14T08:48:52.263Z,23.60
2022-08-14T08:51:43.018Z,23.62
2022-08-14T08:54:31.522Z,23.62
2022-08-14T08:57:21.402Z,23.64
2022-08-14T09:00:24.992Z,23.57
2022-08-14T09:03:17.906Z,23.70
2022-08-14T09:06:54.456Z,23.74
2022-08-14T09:09:25.973Z,23.78
2022-08-14T09:12:19.328Z,23.80
2022-08-14T09:15:12.096Z,23.85
2022-08-14T09:17:58.671Z,23.82
2022-08-14T09:20:47.092Z,23.85
2022-08-14T09:23:35.103Z,23.84
2022-08-14T09:26:49.259Z,23.83
2022-08-14T09:29:35.655Z,23.82
2022-08-14T09:32:59.001Z,23.86
2022-08-14T09:36:04.129Z,23.85
2022-08-14T09:38:50.482Z,23.85
2022-08-14T09:42:21.853Z,23.88
2022-08-14T09:45:20.585Z,23.81
2022-08-14T09:48:18.807Z,23.92
2022-08-14T09:54:19.693Z,23.99
2022-08-14T09:57:12.092Z,24.02
2022-08-14T09:59:58.100Z,24.05
2022-08-14T10:03:05.503Z,24.08
2022-08-14T10:06:10.479Z,24.10
2022-08-14T10:09:16.903Z,24.17
2022-08-14T10:12:13.317Z,24.19
2022-08-14T10:15:16.847Z,24.26
2022-08-14T10:18:17.599Z,24.29
2022-08-14T10:21:09.669Z,24.36
2022-08-14T10:23:55.552Z,24.41
2022-08-14T10:26:43.551Z,24.42
2022-08-14T10:29:35.037Z,24.46
2022-08-14T10:32:28.702Z,24.56
2022-08-14T10:35:30.956Z,24.55
2022-08-14T10:38:36.999Z,24.58
2022-08-14T10:41:46.789Z,24.63
2022-08-14T10:44:38.905Z,24.68
2022-08-14T10:48:07.682Z,24.73
2022-08-14T10:50:51.601Z,24.73
2022-08-14T10:53:39.833Z,24.83
2022-08-14T10:56:35.221Z,24.87
2022-08-14T10:59:30.780Z,24.90
2022-08-14T11:02:45.346Z,24.98
2022-08-14T11:05:56.077Z,25.05
2022-08-14T11:08:45.663Z,25.12
2022-08-14T11:11:35.801Z,25.22
2022-08-14T11:14:23.129Z,25.27
2022-08-14T11:17:13.754Z,25.37
2022-08-14T11:20:14.108Z,25.49
2022-08-14T11:23:04.780Z,25.56
2022-08-14T11:25:57.178Z,25.62
2022-08-14T11:29:17.978Z,25.60
2022-08-14T11:32:04.334Z,25.59
2022-08-14T11:34:53.527Z,25.66
2022-08-14T11:37:51.352Z,25.72
2022-08-14T11:40:43.790Z,25.77
2022-08-14T11:43:44.027Z,25.76
2022-08-14T11:46:43.699Z,25.75
2022-08-14T11:49:34.901Z,25.72
2022-08-14T11:52:21.538Z,25.66
2022-08-14T11:55:15.619Z,25.67
2022-08-14T11:58:10.981Z,25.65
2022-08-14T12:01:02.780Z,25.62
2022-08-14T12:03:52.022Z,25.59
2022-08-14T12:06:52.604Z,25.50
2022-08-14T12:09:42.977Z,25.44
2022-08-14T12:12:35.949Z,25.34
2022-08-14T12:15:33.698Z,25.29
2022-08-14T12:18:38.728Z,25.24
2022-08-14T12:21:26.051Z,25.22
2022-08-14T12:24:35.624Z,25.27
2022-08-14T12:27:25.328Z,25.35
2022-08-14T12:30:26.852Z,25.49
2022-08-14T12:33:33.048Z,25.63
2022-08-14T12:36:23.673Z,25.78
2022-08-14T12:39:21.044Z,25.81
2022-08-14T12:42:07.522Z,25.81
2022-08-14T12:44:58.799Z,25.76
2022-08-14T12:47:51.482Z,25.69
2022-08-14T12:50:42.066Z,25.59
2022-08-14T12:53:38.632Z,25.41
2022-08-14T12:56:33.381Z,25.31
2022-08-14T12:59:31.249Z,25.22
2022-08-14T13:02:27.324Z,25.12
2022-08-14T13:05:14.614Z,25.04
2022-08-14T13:08:03.739Z,24.99
2022-08-14T13:10:52.188Z,24.94
2022-08-14T13:13:44.638Z,24.88
2022-08-14T13:16:33.658Z,24.82
2022-08-14T13:19:28.268Z,24.81
2022-08-14T13:22:28.770Z,24.74
2022-08-14T13:25:18.565Z,24.68
2022-08-14T13:28:05.596Z,24.61
2022-08-14T13:30:58.971Z,24.57
2022-08-14T13:33:46.076Z,24.57
2022-08-14T13:36:51.773Z,24.55
2022-08-14T13:39:39.335Z,24.52
2022-08-14T13:42:31.627Z,24.52
2022-08-14T13:45:22.249Z,24.51
2022-08-14T13:48:08.912Z,24.53
2022-08-14T13:51:10.813Z,24.51
2022-08-14T13:54:10.101Z,24.49
2022-08-14T13:57:01.234Z,24.49
2022-08-14T13:59:49.422Z,24.50
2022-08-14T14:02:39.667Z,24.50
2022-08-14T14:05:53.798Z,24.50
2022-08-14T14:08:47.978Z,24.53
2022-08-14T14:11:34.701Z,24.58
2022-08-14T14:14:45.113Z,24.56
2022-08-14T14:17:29.113Z,24.64
2022-08-14T14:20:35.471Z,24.76
2022-08-14T14:23:25.664Z,24.78
2022-08-14T14:26:23.073Z,24.81
2022-08-14T14:29:14.090Z,24.82
2022-08-14T14:32:01.614Z,24.86
2022-08-14T14:34:48.126Z,24.93
2022-08-14T14:37:35.552Z,25.14
2022-08-14T14:40:54.149Z,25.56
2022-08-14T14:43:28.854Z,26.23
2022-08-14T14:46:17.774Z,26.86
2022-08-14T14:49:08.733Z,27.17
2022-08-14T14:51:56.950Z,27.21
2022-08-14T14:54:43.578Z,27.10
2022-08-14T14:57:35.364Z,27.14
2022-08-14T15:00:22.049Z,27.17
2022-08-14T15:03:07.778Z,27.12
2022-08-14T15:05:54.281Z,26.99
2022-08-14T15:08:56.365Z,26.84
2022-08-14T15:11:47.101Z,27.12
2022-08-14T15:14:54.920Z,28.10
2022-08-14T15:17:42.008Z,29.57
2022-08-14T15:20:30.190Z,30.58
2022-08-14T15:23:17.803Z,30.93
2022-08-14T15:26:08.886Z,30.76
2022-08-14T15:29:03.080Z,30.26
2022-08-14T15:31:51.392Z,29.70
2022-08-14T15:34:51.149Z,29.17
2022-08-14T15:37:42.455Z,28.63
2022-08-14T15:40:29.038Z,28.27
2022-08-14T15:43:16.311Z,27.92
2022-08-14T15:46:03.727Z,27.54
2022-08-14T15:48:50.128Z,27.42
2022-08-14T15:51:42.294Z,27.20
2022-08-14T15:54:31.645Z,26.99
2022-08-14T15:57:18.079Z,26.76
2022-08-14T16:00:40.553Z,26.60
2022-08-14T16:03:35.162Z,26.36
2022-08-14T16:06:29.792Z,26.16
2022-08-14T16:09:15.847Z,26.05
2022-08-14T16:12:05.345Z,25.90
2022-08-14T16:14:51.204Z,25.81
2022-08-14T16:17:44.035Z,25.72
2022-08-14T16:20:41.688Z,25.61
2022-08-14T16:23:36.000Z,25.50
2022-08-14T16:26:30.013Z,25.37
2022-08-14T16:29:21.316Z,25.23
2022-08-14T16:32:32.091Z,25.12
2022-08-14T16:35:16.471Z,24.99
2022-08-14T16:38:19.191Z,25.00
2022-08-14T16:41:26.529Z,24.90
2022-08-14T16:44:21.852Z,24.80
2022-08-14T16:47:22.524Z,24.78
2022-08-14T16:50:11.205Z,24.73
2022-08-14T16:53:00.723Z,24.68
2022-08-14T16:55:53.615Z,24.58
2022-08-14T16:58:42.954Z,24.53
2022-08-14T17:01:29.069Z,24.52
2022-08-14T17:04:24.717Z,24.49
2022-08-14T17:07:13.622Z,24.42
2022-08-14T17:10:09.226Z,24.39
2022-08-14T17:13:27.079Z,24.31
2022-08-14T17:16:37.138Z,24.29
2022-08-14T17:19:24.310Z,24.23
2022-08-14T17:22:14.093Z,24.19
2022-08-14T17:25:03.531Z,24.15
2022-08-14T17:28:52.690Z,24.14
2022-08-14T17:31:19.156Z,24.14
2022-08-14T17:34:05.455Z,24.14
2022-08-14T17:36:56.528Z,24.09
2022-08-14T17:40:15.889Z,24.05
2022-08-14T17:43:02.810Z,24.06
2022-08-14T17:45:49.902Z,24.03
2022-08-14T17:49:10.485Z,24.02
2022-08-14T17:52:07.843Z,23.99
2022-08-14T17:55:09.873Z,24.00
2022-08-14T17:57:59.046Z,24.00
2022-08-14T18:00:45.692Z,24.00
2022-08-14T18:03:51.197Z,23.98
2022-08-14T18:07:09.083Z,23.98
2022-08-14T18:09:56.960Z,23.97
2022-08-14T18:12:45.593Z,23.95
2022-08-14T18:15:37.268Z,23.94
2022-08-14T18:18:23.605Z,23.92
2022-08-14T18:21:42.449Z,23.90
2022-08-14T18:24:19.967Z,23.87
2022-08-14T18:27:23.111Z,23.86
2022-08-14T18:30:33.094Z,23.77
2022-08-14T18:33:22.671Z,23.76
2022-08-14T18:36:48.182Z,23.75
2022-08-14T18:40:01.798Z,23.70
2022-08-14T18:42:47.657Z,23.67
2022-08-14T18:45:42.886Z,23.63
2022-08-14T18:48:50.980Z,23.50
2022-08-14T18:51:46.155Z,23.52
2022-08-14T18:54:36.852Z,23.52
2022-08-14T18:57:23.503Z,23.51
2022-08-14T19:00:32.820Z,23.46
2022-08-14T19:03:22.697Z,23.51
2022-08-14T19:06:11.307Z,23.54
2022-08-14T19:09:05.421Z,23.47
2022-08-14T19:11:51.692Z,23.55
2022-08-14T19:14:47.597Z,23.55
2022-08-14T19:18:14.869Z,23.52
2022-08-14T19:20:54.098Z,23.55
2022-08-14T19:23:44.414Z,23.54
2022-08-14T19:26:52.181Z,23.53
2022-08-14T19:29:40.689Z,23.52
2022-08-14T19:32:36.896Z,23.52
2022-08-14T19:35:48.993Z,23.52
2022-08-14T19:38:44.516Z,23.52
2022-08-14T19:41:35.834Z,23.49
2022-08-14T19:44:31.663Z,23.51
2022-08-14T19:47:18.910Z,23.53
2022-08-14T19:50:38.333Z,23.49
2022-08-14T19:53:17.207Z,23.50
2022-08-14T19:56:04.936Z,23.51
2022-08-14T19:58:54.859Z,23.50
2022-08-14T20:01:51.260Z,23.44
2022-08-14T20:04:47.615Z,23.41
2022-08-14T20:07:56.268Z,23.38
2022-08-14T20:11:07.363Z,23.33
2022-08-14T20:14:29.494Z,23.32
2022-08-14T20:17:18.625Z,23.28
2022-08-14T20:20:15.426Z,23.22
2022-08-14T20:23:12.186Z,23.18
2022-08-14T20:25:59.489Z,23.14
2022-08-14T20:28:51.615Z,23.11
2022-08-14T20:31:39.191Z,23.06
2022-08-14T20:34:38.405Z,22.99
2022-08-14T20:37:37.506Z,22.97
2022-08-14T20:40:28.122Z,22.98
2022-08-14T20:43:39.316Z,22.93
2022-08-14T20:46:30.491Z,22.92
2022-08-14T20:49:18.740Z,22.91
2022-08-14T20:52:19.207Z,22.90
2022-08-14T20:55:22.227Z,22.86
2022-08-14T20:58:38.555Z,22.85
2022-08-14T21:01:34.805Z,22.90
2022-08-14T21:04:30.504Z,22.90
2022-08-14T21:07:25.726Z,22.86
2022-08-14T21:10:34.080Z,22.82
2022-08-14T21:14:08.915Z,22.83
2022-08-14T21:16:42.924Z,22.74
2022-08-14T21:19:45.442Z,22.77
2022-08-14T21:22:38.576Z,22.72
2022-08-14T21:25:24.364Z,22.72
2022-08-14T21:28:29.638Z,22.68
2022-08-14T21:31:17.604Z,22.65
2022-08-14T21:34:05.511Z,22.69
2022-08-14T21:37:15.527Z,22.63
2022-08-14T21:40:02.093Z,22.64
2022-08-14T21:43:17.780Z,22.66
2022-08-14T21:46:05.068Z,22.66
2022-08-14T21:48:50.805Z,22.62
2022-08-14T21:51:52.891Z,22.65
2022-08-14T21:54:49.697Z,22.62
2022-08-14T21:58:46.074Z,22.53
2022-08-14T22:00:51.610Z,22.51
2022-08-14T22:03:39.613Z,22.51
2022-08-14T22:06:33.841Z,22.43
2022-08-14T22:09:25.499Z,22.47
2022-08-14T22:12:45.326Z,22.47
2022-08-14T22:15:30.122Z,22.42
2022-08-14T22:18:19.839Z,22.44
2022-08-14T22:21:08.217Z,22.42
2022-08-14T22:24:10.757Z,22.41
2022-08-14T22:26:59.621Z,22.30
2022-08-14T22:29:45.480Z,22.32
2022-08-14T22:32:57.301Z,22.27
2022-08-14T22:35:44.490Z,22.20
2022-08-14T22:38:37.040Z,22.20
2022-08-14T22:41:30.408Z,22.16
2022-08-14T22:44:38.692Z,22.16
2022-08-14T22:47:40.309Z,22.18
2022-08-14T22:50:30.726Z,22.13
2022-08-14T22:53:19.086Z,22.17
2022-08-14T22:56:05.421Z,22.15
2022-08-14T22:59:09.487Z,22.16
2022-08-14T23:01:58.781Z,22.13
2022-08-14T23:04:53.871Z,22.11
2022-08-14T23:08:58.942Z,22.11
2022-08-14T23:10:47.260Z,22.05
2022-08-14T23:13:33.287Z,22.07
2022-08-14T23:16:21.103Z,22.04
2022-08-14T23:19:11.015Z,22.06
2022-08-14T23:21:57.492Z,22.03
2022-08-14T23:24:43.665Z,22.04
2022-08-14T23:28:03.257Z,22.00
2022-08-14T23:30:40.574Z,22.03
2022-08-14T23:33:35.423Z,22.05
2022-08-14T23:36:32.336Z,22.05
2022-08-14T23:39:32.743Z,22.01
2022-08-14T23:42:39.990Z,21.99
2022-08-14T23:45:37.162Z,22.00
2022-08-14T23:48:27.882Z,22.01
2022-08-14T23:51:16.647Z,22.00
2022-08-14T23:54:05.863Z,21.99
2022-08-14T23:57:11.886Z,21.96
2022-08-14T23:59:57.743Z,21.96
